Time;durP1;ratioP1;P1;durP2;ratioP2;P2;SDS_P1;SDS_P2;PMS_P1;PMS_P2;Temp;Humidity;BMP_temperature;BMP_pressure;BME280_temperature;BME280_humidity;BME280_pressure;Samples;Min_cycle;Max_cycle;Signal;HPM_P1;HPM_P2
2023/10/28 00:00:43;;;;;;;14.63;6.77;;;9.80;99.90;;;;;;5029815;28;20443;-73
2023/10/28 00:03:09;;;;;;;17.42;6.75;;;9.90;99.90;;;;;;5029948;28;20377;-71
2023/10/28 00:05:35;;;;;;;18.02;6.50;;;9.90;99.90;;;;;;5042640;28;20453;-74
2023/10/28 00:08:01;;;;;;;15.85;7.45;;;9.90;99.90;;;;;;5036041;28;20926;-72
2023/10/28 00:10:28;;;;;;;18.48;7.30;;;9.90;99.90;;;;;;5028916;28;20396;-73
2023/10/28 00:12:54;;;;;;;17.02;7.07;;;10.00;99.90;;;;;;5046883;28;20490;-71
2023/10/28 00:15:20;;;;;;;14.13;6.70;;;9.90;99.90;;;;;;5036170;28;20826;-72
2023/10/28 00:17:49;;;;;;;22.47;6.40;;;10.00;99.90;;;;;;5015341;28;20780;-72
2023/10/28 00:20:17;;;;;;;14.32;7.30;;;10.00;99.90;;;;;;5013283;28;20397;-71
2023/10/28 00:22:46;;;;;;;12.73;6.30;;;10.00;99.90;;;;;;5013973;28;20397;-72
2023/10/28 00:25:13;;;;;;;18.05;6.70;;;10.00;99.90;;;;;;5013518;28;20458;-73
2023/10/28 00:27:40;;;;;;;18.52;6.60;;;10.00;99.90;;;;;;5015077;28;20392;-72
2023/10/28 00:30:09;;;;;;;16.23;6.90;;;10.00;99.90;;;;;;5014702;28;20423;-72
2023/10/28 00:32:36;;;;;;;14.60;6.63;;;10.00;99.90;;;;;;5014282;28;20779;-71
2023/10/28 00:35:02;;;;;;;17.90;7.07;;;10.10;99.90;;;;;;5014512;28;20397;-72
2023/10/28 00:37:27;;;;;;;17.20;6.70;;;10.10;99.90;;;;;;5019893;28;20498;-73
2023/10/28 00:39:53;;;;;;;15.20;7.17;;;10.10;99.90;;;;;;5015004;28;20412;-72
2023/10/28 00:42:20;;;;;;;12.02;6.63;;;10.10;99.90;;;;;;5013554;28;20415;-73
2023/10/28 00:44:46;;;;;;;15.70;7.20;;;10.10;99.90;;;;;;5012887;28;20384;-70
2023/10/28 00:47:12;;;;;;;14.67;6.67;;;10.20;99.90;;;;;;5014128;28;20923;-72
2023/10/28 00:49:38;;;;;;;13.77;7.40;;;10.20;99.90;;;;;;5011978;28;20404;-73
2023/10/28 00:52:04;;;;;;;16.83;7.00;;;10.30;99.90;;;;;;5012610;28;20428;-73
2023/10/28 00:54:30;;;;;;;18.42;7.00;;;10.30;99.90;;;;;;5014454;28;20389;-72
2023/10/28 00:56:58;;;;;;;17.10;6.95;;;10.30;99.90;;;;;;5016357;28;20435;-72
2023/10/28 00:59:24;;;;;;;17.10;7.13;;;10.20;99.90;;;;;;5014527;28;20396;-72
2023/10/28 01:01:51;;;;;;;19.03;7.50;;;10.30;99.90;;;;;;5016128;28;20516;-71
2023/10/28 01:04:17;;;;;;;19.05;7.22;;;10.20;99.90;;;;;;5010763;28;20404;-72
2023/10/28 01:06:43;;;;;;;18.60;7.20;;;10.30;99.90;;;;;;5011832;28;20465;-72
2023/10/28 01:09:08;;;;;;;18.05;7.85;;;10.30;99.90;;;;;;5012023;28;20917;-72
2023/10/28 01:11:39;;;;;;;20.00;8.00;;;10.30;99.90;;;;;;5012807;28;20475;-72
2023/10/28 01:14:06;;;;;;;17.95;7.70;;;10.30;99.90;;;;;;5027612;28;20454;-73
2023/10/28 01:16:32;;;;;;;20.00;8.18;;;10.30;99.90;;;;;;5027965;28;20420;-72
2023/10/28 01:18:57;;;;;;;21.33;7.50;;;10.30;99.90;;;;;;5011874;28;20475;-73
2023/10/28 01:21:23;;;;;;;16.83;6.90;;;10.30;99.90;;;;;;5012605;28;20523;-73
2023/10/28 01:23:49;;;;;;;16.88;7.50;;;10.30;99.90;;;;;;5011537;28;20397;-70
2023/10/28 01:26:15;;;;;;;17.37;7.47;;;10.40;99.90;;;;;;5012106;28;20381;-73
2023/10/28 01:28:40;;;;;;;22.30;7.60;;;10.40;99.90;;;;;;5012296;28;20470;-73
2023/10/28 01:31:06;;;;;;;19.57;7.93;;;10.40;99.90;;;;;;5013558;28;20440;-72
2023/10/28 01:33:31;;;;;;;16.77;7.10;;;10.50;99.90;;;;;;5012990;28;20389;-73
2023/10/28 01:35:57;;;;;;;21.73;7.57;;;10.50;99.90;;;;;;5011938;28;20454;-71
2023/10/28 01:38:23;;;;;;;21.02;7.40;;;10.50;99.90;;;;;;5012055;28;20396;-72
2023/10/28 01:40:51;;;;;;;15.63;7.13;;;10.50;99.90;;;;;;5011572;28;20957;-72
2023/10/28 01:43:17;;;;;;;20.23;6.70;;;10.50;99.90;;;;;;5011806;28;20467;-73
2023/10/28 01:45:42;;;;;;;19.17;7.20;;;10.50;99.90;;;;;;5014186;28;20379;-73
2023/10/28 01:48:08;;;;;;;12.07;6.10;;;10.60;99.90;;;;;;5011819;28;20384;-72
2023/10/28 01:50:34;;;;;;;12.50;6.30;;;10.50;99.90;;;;;;5011976;28;20451;-71
2023/10/28 01:52:59;;;;;;;18.80;7.10;;;10.50;99.90;;;;;;5011905;28;20397;-72
2023/10/28 01:55:25;;;;;;;12.90;6.50;;;10.50;99.90;;;;;;5011176;28;20396;-72
2023/10/28 01:57:51;;;;;;;17.92;7.40;;;10.50;99.90;;;;;;5012221;28;20431;-73
2023/10/28 02:00:16;;;;;;;15.85;6.50;;;10.50;99.90;;;;;;5011497;28;20392;-73
2023/10/28 02:02:45;;;;;;;16.42;6.53;;;10.60;99.90;;;;;;5011607;28;20385;-72
2023/10/28 02:05:10;;;;;;;14.17;6.33;;;10.60;99.90;;;;;;5011542;28;20813;-72
2023/10/28 02:07:36;;;;;;;13.25;5.90;;;10.70;99.90;;;;;;5010964;28;20472;-73
2023/10/28 02:10:02;;;;;;;13.18;5.72;;;10.70;99.90;;;;;;5011612;28;20447;-71
2023/10/28 02:12:28;;;;;;;14.73;5.32;;;10.70;99.90;;;;;;5011916;28;20435;-72
2023/10/28 02:14:53;;;;;;;10.63;4.93;;;10.70;99.90;;;;;;5010236;28;20896;-70
2023/10/28 02:17:19;;;;;;;12.93;4.82;;;10.80;99.90;;;;;;5011135;28;20392;-72
2023/10/28 02:19:44;;;;;;;12.57;4.45;;;10.80;99.90;;;;;;5011051;28;20388;-72
2023/10/28 02:22:10;;;;;;;13.10;4.30;;;10.90;99.90;;;;;;5010922;28;20459;-72
2023/10/28 02:24:37;;;;;;;15.53;4.67;;;10.80;99.90;;;;;;5012032;28;20442;-73
2023/10/28 02:27:02;;;;;;;11.15;4.80;;;10.90;99.90;;;;;;5027226;28;20388;-70
2023/10/28 02:29:29;;;;;;;10.87;4.53;;;10.80;99.90;;;;;;5010216;28;20531;-71
2023/10/28 02:31:54;;;;;;;11.82;4.70;;;10.80;99.90;;;;;;5010374;28;20446;-71
2023/10/28 02:34:20;;;;;;;13.73;5.05;;;10.80;99.90;;;;;;5010222;28;20472;-71
2023/10/28 02:36:46;;;;;;;9.05;4.82;;;10.80;99.90;;;;;;5009981;28;20474;-72
2023/10/28 02:39:12;;;;;;;14.55;5.05;;;10.70;99.90;;;;;;5011171;28;20392;-72
2023/10/28 02:41:38;;;;;;;16.90;5.47;;;10.70;99.90;;;;;;5010233;28;20637;-72
2023/10/28 02:44:04;;;;;;;12.55;5.68;;;10.70;99.90;;;;;;5010067;28;20388;-73
2023/10/28 02:46:30;;;;;;;12.07;5.20;;;10.70;99.90;;;;;;5009908;28;20957;-71
2023/10/28 02:48:56;;;;;;;15.23;5.10;;;10.80;99.90;;;;;;5010066;28;20389;-72
2023/10/28 02:51:22;;;;;;;14.77;5.40;;;10.80;99.90;;;;;;5010020;28;20427;-72
2023/10/28 02:53:47;;;;;;;14.95;5.70;;;10.70;99.90;;;;;;5009932;28;20389;-72
2023/10/28 02:56:13;;;;;;;12.82;5.70;;;10.70;99.90;;;;;;5009911;28;20388;-72
2023/10/28 02:58:39;;;;;;;19.03;5.63;;;10.80;99.90;;;;;;5010239;28;20435;-71
2023/10/28 03:01:13;;;;;;;15.60;6.00;;;10.80;99.90;;;;;;5010275;28;20413;-72
2023/10/28 03:03:39;;;;;;;11.25;5.80;;;10.80;99.90;;;;;;5010334;28;20466;-72
2023/10/28 03:06:06;;;;;;;15.23;5.43;;;10.80;99.90;;;;;;5010238;28;20428;-71
2023/10/28 03:08:31;;;;;;;15.18;6.40;;;10.70;99.90;;;;;;5010237;28;20980;-71
2023/10/28 03:10:57;;;;;;;15.18;6.20;;;10.70;99.90;;;;;;5010161;28;20480;-72
2023/10/28 03:13:23;;;;;;;12.07;5.90;;;10.60;99.90;;;;;;5009988;28;20389;-71
2023/10/28 03:15:49;;;;;;;14.38;5.70;;;10.60;99.90;;;;;;5009791;28;20851;-71
2023/10/28 03:18:15;;;;;;;10.40;5.40;;;10.50;99.90;;;;;;5010081;28;20425;-72
2023/10/28 03:20:41;;;;;;;19.13;6.25;;;10.40;99.90;;;;;;5010106;28;20404;-70
2023/10/28 03:23:07;;;;;;;12.40;5.78;;;10.40;99.90;;;;;;5009836;28;20951;-71
2023/10/28 03:25:32;;;;;;;10.35;5.45;;;10.20;99.90;;;;;;5009906;28;20903;-72
2023/10/28 03:28:01;;;;;;;15.52;6.10;;;10.10;99.90;;;;;;5013609;28;20414;-72
2023/10/28 03:30:27;;;;;;;12.25;6.00;;;10.10;99.90;;;;;;5013491;28;20380;-72
2023/10/28 03:32:53;;;;;;;12.70;5.30;;;10.00;99.90;;;;;;5013449;28;20472;-72
2023/10/28 03:35:19;;;;;;;11.67;6.20;;;10.00;99.90;;;;;;5013386;28;20401;-71
2023/10/28 03:37:45;;;;;;;20.60;6.85;;;10.00;99.90;;;;;;5013858;28;20381;-72
2023/10/28 03:40:11;;;;;;;12.48;6.35;;;10.00;99.90;;;;;;5013371;28;20451;-71
2023/10/28 03:42:37;;;;;;;19.23;6.60;;;10.10;99.90;;;;;;5014646;28;20449;-72
2023/10/28 03:45:07;;;;;;;12.97;5.80;;;10.10;99.90;;;;;;5014396;28;20391;-73
2023/10/28 03:47:33;;;;;;;15.77;6.43;;;10.10;99.90;;;;;;5014987;28;20392;-73
2023/10/28 03:49:59;;;;;;;13.40;6.15;;;10.10;99.90;;;;;;5015555;28;20477;-72
2023/10/28 03:52:25;;;;;;;15.63;6.30;;;10.10;99.90;;;;;;5013984;28;20439;-72
2023/10/28 03:54:50;;;;;;;11.85;5.60;;;10.10;99.90;;;;;;5016052;28;20452;-71
2023/10/28 03:57:17;;;;;;;15.18;6.05;;;10.20;99.90;;;;;;5023198;28;20403;-70
2023/10/28 03:59:45;;;;;;;15.23;6.30;;;10.20;99.90;;;;;;5022599;28;20397;-73
2023/10/28 04:02:11;;;;;;;13.90;5.20;;;10.20;99.90;;;;;;5020463;28;20408;-73
2023/10/28 04:04:36;;;;;;;12.18;5.25;;;10.20;99.90;;;;;;5019625;28;20475;-72
2023/10/28 04:07:02;;;;;;;13.02;5.47;;;10.10;99.90;;;;;;5019369;28;20516;-73
2023/10/28 04:09:27;;;;;;;11.60;5.20;;;10.00;99.90;;;;;;5020021;28;20476;-71
2023/10/28 04:11:53;;;;;;;11.73;6.00;;;9.90;99.90;;;;;;5020327;28;20389;-72
2023/10/28 04:14:18;;;;;;;14.00;5.13;;;9.80;99.90;;;;;;5016711;28;20393;-71
2023/10/28 04:16:44;;;;;;;14.77;5.30;;;9.70;99.90;;;;;;5014595;28;20396;-71
2023/10/28 04:19:09;;;;;;;13.83;5.70;;;9.60;99.90;;;;;;5012007;28;20468;-72
2023/10/28 04:21:35;;;;;;;13.48;5.25;;;9.60;99.90;;;;;;5012870;28;20486;-72
2023/10/28 04:24:01;;;;;;;12.27;5.18;;;9.50;99.90;;;;;;5013198;28;20468;-72
2023/10/28 04:26:26;;;;;;;15.68;5.60;;;9.50;99.90;;;;;;5013203;28;20407;-72
2023/10/28 04:28:52;;;;;;;8.95;4.93;;;9.50;99.90;;;;;;5013792;28;20381;-72
2023/10/28 04:31:17;;;;;;;8.90;5.00;;;9.50;99.90;;;;;;5013245;28;20867;-72
2023/10/28 04:33:43;;;;;;;9.60;4.90;;;9.50;99.90;;;;;;5012857;28;20880;-72
2023/10/28 04:36:09;;;;;;;9.50;4.40;;;9.50;99.90;;;;;;5012288;28;20397;-72
2023/10/28 04:38:37;;;;;;;13.82;4.90;;;9.50;99.90;;;;;;5012202;28;20380;-72
2023/10/28 04:41:02;;;;;;;11.73;5.03;;;9.50;99.90;;;;;;5012705;28;20543;-72
2023/10/28 04:43:29;;;;;;;11.13;5.03;;;9.60;99.90;;;;;;5012714;28;20944;-72
2023/10/28 04:45:54;;;;;;;12.25;4.68;;;9.60;99.90;;;;;;5012396;28;20728;-72
2023/10/28 04:48:21;;;;;;;9.20;3.90;;;9.50;99.90;;;;;;5012561;28;20392;-72
2023/10/28 04:50:48;;;;;;;15.90;4.30;;;9.70;99.90;;;;;;5012670;28;20474;-72
2023/10/28 04:53:14;;;;;;;6.85;3.80;;;9.70;99.90;;;;;;5012433;28;20381;-71
2023/10/28 04:55:41;;;;;;;9.90;4.03;;;9.70;99.90;;;;;;5012453;28;20813;-72
2023/10/28 04:58:07;;;;;;;9.00;4.00;;;9.60;99.90;;;;;;5012908;28;20450;-72
2023/10/28 05:00:32;;;;;;;7.40;3.50;;;9.70;99.90;;;;;;5012719;28;20385;-72
2023/10/28 05:02:58;;;;;;;11.93;4.43;;;9.70;99.90;;;;;;5013848;28;20400;-73
2023/10/28 05:05:24;;;;;;;7.20;3.70;;;9.70;99.90;;;;;;5012226;28;20381;-72
2023/10/28 05:07:50;;;;;;;10.63;4.07;;;9.70;99.90;;;;;;5012196;28;20408;-72
2023/10/28 05:10:15;;;;;;;8.03;3.37;;;9.70;99.90;;;;;;5011821;28;20728;-73
2023/10/28 05:12:41;;;;;;;11.00;3.83;;;9.70;99.90;;;;;;5011925;28;20404;-72
2023/10/28 05:15:08;;;;;;;9.07;4.50;;;9.70;99.90;;;;;;5010498;28;20400;-73
2023/10/28 05:17:35;;;;;;;7.10;3.70;;;9.70;99.90;;;;;;5012727;28;20392;-72
2023/10/28 05:20:01;;;;;;;8.25;3.50;;;9.80;99.90;;;;;;5012346;28;20848;-73
2023/10/28 05:22:26;;;;;;;6.97;3.67;;;9.80;99.90;;;;;;5011739;28;20412;-72
2023/10/28 05:24:54;;;;;;;7.60;3.37;;;9.90;99.90;;;;;;5011518;28;20889;-73
2023/10/28 05:27:19;;;;;;;6.93;3.20;;;9.90;99.90;;;;;;5011768;28;20384;-71
2023/10/28 05:29:45;;;;;;;11.55;3.38;;;10.00;99.90;;;;;;5012007;28;20395;-72
2023/10/28 05:32:10;;;;;;;9.30;3.40;;;10.10;99.90;;;;;;5012143;28;20397;-72
2023/10/28 05:34:36;;;;;;;6.27;3.47;;;10.10;99.90;;;;;;5012390;28;20396;-71
2023/10/28 05:37:02;;;;;;;7.67;3.80;;;10.10;99.90;;;;;;5012232;28;20807;-72
2023/10/28 05:39:28;;;;;;;10.50;4.15;;;10.20;99.90;;;;;;5011501;28;20792;-72
2023/10/28 05:41:54;;;;;;;13.25;4.75;;;10.20;99.90;;;;;;5011964;28;20415;-72
2023/10/28 05:44:19;;;;;;;10.98;4.70;;;10.30;99.90;;;;;;5011669;28;20388;-73
2023/10/28 05:46:45;;;;;;;6.70;4.38;;;10.40;99.90;;;;;;5011383;28;21000;-73
2023/10/28 05:49:12;;;;;;;9.07;4.50;;;10.40;99.90;;;;;;5011030;28;20463;-73
2023/10/28 05:51:38;;;;;;;8.00;4.80;;;10.50;99.90;;;;;;5011696;28;20400;-72
2023/10/28 05:54:04;;;;;;;9.80;5.23;;;10.50;99.90;;;;;;5011366;28;20893;-72
2023/10/28 05:56:30;;;;;;;7.90;5.60;;;10.50;99.90;;;;;;5012029;28;20392;-73
2023/10/28 05:58:58;;;;;;;10.80;5.80;;;10.50;99.90;;;;;;5011815;28;20384;-72
2023/10/28 06:01:24;;;;;;;11.80;5.60;;;10.70;99.90;;;;;;5011437;28;20768;-74
2023/10/28 06:03:50;;;;;;;12.33;5.30;;;10.70;99.90;;;;;;5012548;28;20391;-73
2023/10/28 06:06:15;;;;;;;9.97;5.70;;;10.70;99.90;;;;;;5011430;28;20388;-72
2023/10/28 06:08:41;;;;;;;9.50;5.60;;;10.70;99.90;;;;;;5011100;28;20875;-72
2023/10/28 06:11:09;;;;;;;10.07;5.95;;;10.70;99.90;;;;;;5011230;28;20400;-72
2023/10/28 06:13:37;;;;;;;9.50;5.72;;;10.70;99.90;;;;;;5011421;28;20922;-72
2023/10/28 06:16:03;;;;;;;19.00;10.05;;;10.70;99.90;;;;;;5011056;28;20393;-73
2023/10/28 06:18:29;;;;;;;8.65;5.68;;;10.70;99.90;;;;;;5010865;28;20387;-73
2023/10/28 06:20:55;;;;;;;11.60;5.82;;;10.70;99.90;;;;;;5013336;28;20794;-71
2023/10/28 06:23:21;;;;;;;10.30;5.13;;;10.70;99.90;;;;;;5010634;28;20381;-72
2023/10/28 06:25:46;;;;;;;11.30;5.65;;;10.70;99.90;;;;;;5010916;28;20376;-72
2023/10/28 06:28:12;;;;;;;10.15;5.60;;;10.80;99.90;;;;;;5010653;28;20472;-73
2023/10/28 06:30:48;;;;;;;7.50;4.73;;;10.80;99.90;;;;;;5011168;28;20697;-72
2023/10/28 06:33:14;;;;;;;9.63;5.10;;;10.80;99.90;;;;;;5010832;28;20447;-71
2023/10/28 06:35:40;;;;;;;8.20;4.40;;;10.90;99.90;;;;;;5010797;28;20907;-72
2023/10/28 06:38:06;;;;;;;8.47;4.90;;;10.90;99.90;;;;;;5011080;28;20729;-73
2023/10/28 06:40:32;;;;;;;8.18;4.30;;;10.90;99.90;;;;;;5011204;28;20863;-73
2023/10/28 06:42:58;;;;;;;9.80;4.50;;;11.10;99.80;;;;;;5011750;28;20870;-73
2023/10/28 06:45:24;;;;;;;8.57;4.00;;;11.10;98.00;;;;;;5011256;28;20512;-72
2023/10/28 06:47:50;;;;;;;5.90;3.80;;;11.00;99.90;;;;;;5012226;28;20427;-72
2023/10/28 06:50:19;;;;;;;8.82;4.43;;;11.10;98.80;;;;;;5011376;28;20388;-72
2023/10/28 06:52:47;;;;;;;8.02;4.10;;;11.10;98.60;;;;;;5011637;28;20830;-72
2023/10/28 06:55:12;;;;;;;7.47;3.75;;;11.20;95.20;;;;;;5011258;28;20619;-72
2023/10/28 06:57:39;;;;;;;7.00;3.50;;;11.10;96.80;;;;;;5011411;28;20385;-73
2023/10/28 07:00:05;;;;;;;6.95;4.50;;;11.10;96.80;;;;;;5011787;28;20388;-72
2023/10/28 07:02:32;;;;;;;5.82;3.15;;;11.20;97.70;;;;;;5014753;28;20486;-71
2023/10/28 07:04:58;;;;;;;8.60;3.00;;;11.20;96.40;;;;;;5015006;28;20733;-72
2023/10/28 07:07:23;;;;;;;8.00;2.90;;;11.20;96.20;;;;;;5013205;28;20462;-72
2023/10/28 07:09:49;;;;;;;6.57;3.60;;;11.30;94.70;;;;;;5014664;28;20951;-72
2023/10/28 07:12:15;;;;;;;6.47;2.97;;;11.40;93.40;;;;;;5014456;28;20392;-73
2023/10/28 07:14:40;;;;;;;4.63;2.70;;;11.40;92.30;;;;;;5014719;28;20466;-74
2023/10/28 07:17:06;;;;;;;5.33;3.10;;;11.50;91.40;;;;;;5015180;28;20860;-71
2023/10/28 07:19:31;;;;;;;7.75;2.85;;;11.60;90.70;;;;;;5014279;28;20380;-71
2023/10/28 07:21:57;;;;;;;7.93;2.50;;;11.50;89.90;;;;;;5014290;28;20400;-70
2023/10/28 07:24:23;;;;;;;6.15;2.60;;;11.50;89.30;;;;;;5014663;28;20389;-71
2023/10/28 07:26:50;;;;;;;5.70;2.80;;;11.60;88.60;;;;;;5014727;28;20400;-72
2023/10/28 07:29:17;;;;;;;5.00;2.85;;;11.50;89.40;;;;;;5014974;28;20399;-73
2023/10/28 07:31:42;;;;;;;6.35;2.50;;;11.60;87.10;;;;;;5014587;28;20400;-72
2023/10/28 07:34:08;;;;;;;7.15;2.80;;;11.60;87.90;;;;;;5014355;28;20815;-72
2023/10/28 07:36:34;;;;;;;6.70;2.43;;;11.70;88.20;;;;;;5014484;28;20435;-71
2023/10/28 07:39:01;;;;;;;4.80;2.20;;;11.70;87.40;;;;;;5015352;28;20424;-73
2023/10/28 07:41:30;;;;;;;4.13;2.15;;;11.80;85.30;;;;;;5014926;28;20492;-71
2023/10/28 07:43:56;;;;;;;4.57;2.40;;;11.90;84.20;;;;;;5015222;28;20395;-72
2023/10/28 07:46:25;;;;;;;4.53;1.90;;;11.90;83.50;;;;;;5015407;28;20388;-72
2023/10/28 07:48:53;;;;;;;5.30;2.20;;;11.90;84.60;;;;;;5014799;28;20523;-72
2023/10/28 07:51:19;;;;;;;5.60;2.35;;;12.00;82.70;;;;;;5014134;28;20397;-72
2023/10/28 07:53:48;;;;;;;5.50;2.60;;;12.00;82.10;;;;;;5013970;28;20381;-72
2023/10/28 07:56:15;;;;;;;4.90;2.65;;;12.10;81.90;;;;;;5013731;28;20775;-72
2023/10/28 07:58:41;;;;;;;6.77;2.50;;;12.10;80.80;;;;;;5016205;28;20833;-73
2023/10/28 08:01:33;;;;;;;6.20;2.60;;;12.20;80.10;;;;;;5035802;28;20413;-73
2023/10/28 08:03:58;;;;;;;4.67;2.47;;;12.20;78.80;;;;;;5027644;28;20395;-73
2023/10/28 08:06:25;;;;;;;6.27;2.50;;;12.20;79.50;;;;;;5033192;28;20390;-73
2023/10/28 08:08:53;;;;;;;6.20;2.50;;;12.20;79.90;;;;;;5032634;28;20414;-71
2023/10/28 08:11:20;;;;;;;5.55;1.90;;;12.30;79.10;;;;;;5032477;28;20557;-73
2023/10/28 08:13:48;;;;;;;9.35;2.90;;;12.30;76.60;;;;;;5029453;28;20428;-73
2023/10/28 08:16:18;;;;;;;7.78;3.40;;;12.30;79.10;;;;;;5017339;28;20424;-73
2023/10/28 08:18:44;;;;;;;6.00;2.80;;;12.30;80.30;;;;;;5031619;28;20405;-73
2023/10/28 08:21:10;;;;;;;6.68;2.50;;;12.30;80.50;;;;;;5032090;28;20997;-73
2023/10/28 08:23:38;;;;;;;4.60;2.08;;;12.30;80.80;;;;;;5035760;28;20817;-75
2023/10/28 08:26:07;;;;;;;3.55;2.70;;;12.30;80.20;;;;;;5035261;28;20873;-73
2023/10/28 08:28:33;;;;;;;4.90;1.90;;;12.30;79.60;;;;;;5032680;28;20414;-72
2023/10/28 08:30:58;;;;;;;6.80;2.40;;;12.30;81.10;;;;;;5029957;28;20385;-73
2023/10/28 08:33:24;;;;;;;5.63;2.80;;;12.40;79.70;;;;;;5023235;28;20415;-73
2023/10/28 08:35:51;;;;;;;4.73;2.47;;;12.60;76.10;;;;;;5011681;28;20424;-75
2023/10/28 08:38:17;;;;;;;7.22;2.25;;;12.60;74.60;;;;;;5012826;28;20399;-73
2023/10/28 08:40:47;;;;;;;3.60;2.53;;;12.70;74.10;;;;;;5014891;28;21209;-74
2023/10/28 08:43:19;;;;;;;7.65;2.42;;;12.80;73.90;;;;;;5031133;28;20809;-73
2023/10/28 08:45:45;;;;;;;8.60;3.40;;;12.90;74.00;;;;;;5029550;28;20411;-72
2023/10/28 08:48:15;;;;;;;7.10;2.40;;;13.00;71.40;;;;;;5027762;28;20425;-72
2023/10/28 08:50:45;;;;;;;5.30;2.20;;;13.00;71.40;;;;;;5031449;28;20477;-73
2023/10/28 08:53:14;;;;;;;4.30;2.40;;;13.00;70.00;;;;;;5021614;28;20814;-73
2023/10/28 08:55:40;;;;;;;5.33;2.40;;;13.00;72.10;;;;;;5011376;28;20523;-73
2023/10/28 08:58:08;;;;;;;5.25;2.70;;;13.00;71.50;;;;;;5010648;28;20880;-73
2023/10/28 09:00:35;;;;;;;5.85;2.60;;;13.00;72.40;;;;;;5018692;28;20422;-73
2023/10/28 09:03:04;;;;;;;4.60;2.50;;;13.00;72.50;;;;;;5030230;28;20398;-73
2023/10/28 09:05:29;;;;;;;6.80;2.70;;;13.10;72.00;;;;;;5029659;28;20379;-72
2023/10/28 09:07:55;;;;;;;9.10;2.80;;;13.20;70.70;;;;;;5028534;28;20430;-74
2023/10/28 09:10:21;;;;;;;7.50;3.10;;;13.30;70.10;;;;;;5026525;28;20822;-74
2023/10/28 09:12:49;;;;;;;4.05;2.40;;;13.30;69.30;;;;;;5030261;28;20472;-74
2023/10/28 09:15:15;;;;;;;11.20;2.70;;;13.20;70.20;;;;;;5027973;28;20928;-74
2023/10/28 09:17:40;;;;;;;8.38;2.60;;;13.20;70.00;;;;;;5030845;28;20395;-74
2023/10/28 09:20:11;;;;;;;8.07;2.55;;;13.20;70.20;;;;;;5031628;28;20451;-74
2023/10/28 09:22:39;;;;;;;5.22;2.08;;;13.20;70.90;;;;;;5028098;28;20912;-73
2023/10/28 09:25:05;;;;;;;5.72;2.45;;;13.20;71.70;;;;;;5029764;28;20396;-73
2023/10/28 09:27:32;;;;;;;7.10;4.00;;;13.20;72.40;;;;;;5031125;28;20475;-71
2023/10/28 09:30:08;;;;;;;6.45;2.20;;;13.40;71.00;;;;;;5027500;28;20395;-72
2023/10/28 09:32:34;;;;;;;3.70;2.30;;;13.50;69.50;;;;;;5028954;28;20449;-72
2023/10/28 09:37:28;;;;;;;2.70;1.98;;;13.60;69.10;;;;;;5067667;28;20432;-73
2023/10/28 09:39:54;;;;;;;3.08;1.90;;;13.80;65.90;;;;;;5070623;28;20392;-71
2023/10/28 09:42:22;;;;;;;2.00;1.73;;;13.90;65.60;;;;;;5070650;28;20457;-72
2023/10/28 09:44:48;;;;;;;5.38;1.65;;;14.10;63.00;;;;;;5068775;28;20475;-72
2023/10/28 09:47:18;;;;;;;3.50;2.10;;;14.20;61.50;;;;;;5071408;28;20394;-72
2023/10/28 09:49:48;;;;;;;5.85;1.92;;;14.50;59.00;;;;;;5073524;28;20388;-73
2023/10/28 09:52:18;;;;;;;3.45;1.80;;;14.60;57.50;;;;;;5071315;28;20383;-72
2023/10/28 09:54:47;;;;;;;5.03;1.90;;;14.70;57.50;;;;;;5051459;28;20488;-73
2023/10/28 09:57:13;;;;;;;2.90;1.80;;;14.70;56.20;;;;;;5051556;28;20464;-72
2023/10/28 09:59:41;;;;;;;5.47;2.37;;;14.70;56.40;;;;;;5051101;28;20924;-72
2023/10/28 10:02:18;;;;;;;5.78;2.60;;;14.60;57.60;;;;;;5065989;28;20437;-72
2023/10/28 10:04:55;;;;;;;4.80;2.00;;;14.50;58.40;;;;;;5055230;28;20389;-72
2023/10/28 10:07:21;;;;;;;6.13;2.20;;;14.40;57.40;;;;;;5071249;28;20411;-72
2023/10/28 10:09:49;;;;;;;5.95;2.60;;;14.40;58.00;;;;;;5071621;28;20384;-72
2023/10/28 10:12:15;;;;;;;6.53;2.13;;;14.40;59.20;;;;;;5070372;28;20416;-71
2023/10/28 10:14:45;;;;;;;8.70;2.20;;;14.50;57.40;;;;;;5069653;28;20415;-71
2023/10/28 10:17:40;;;;;;;4.25;1.92;;;14.60;57.10;;;;;;5071350;28;20391;-74
2023/10/28 10:20:06;;;;;;;3.55;1.52;;;14.60;57.20;;;;;;5050420;28;20402;-73
2023/10/28 10:22:35;;;;;;;5.83;2.20;;;14.70;56.10;;;;;;5048935;28;20405;-72
2023/10/28 10:25:01;;;;;;;8.48;2.60;;;14.80;56.00;;;;;;5048806;28;20690;-70
2023/10/28 10:27:44;;;;;;;5.63;2.17;;;14.90;55.00;;;;;;5049311;28;20736;-72
2023/10/28 10:30:10;;;;;;;3.33;1.90;;;14.90;54.60;;;;;;5049490;28;20381;-71
2023/10/28 10:32:47;;;;;;;3.92;1.92;;;15.10;52.70;;;;;;5049056;28;20386;-71
2023/10/28 10:35:27;;;;;;;5.60;3.22;;;15.10;52.10;;;;;;5048163;28;20393;-72
2023/10/28 10:38:08;;;;;;;5.03;2.10;;;15.20;53.30;;;;;;5055675;28;20396;-72
2023/10/28 10:40:52;;;;;;;4.47;2.22;;;15.30;52.40;;;;;;5059823;28;20744;-72
2023/10/28 10:43:19;;;;;;;7.75;2.70;;;15.50;52.00;;;;;;5054307;28;20752;-72
2023/10/28 10:45:45;;;;;;;7.00;2.60;;;15.50;50.70;;;;;;5046783;28;20420;-73
2023/10/28 10:48:11;;;;;;;6.00;3.45;;;15.60;51.20;;;;;;5068435;28;20445;-74
2023/10/28 10:50:38;;;;;;;5.70;2.90;;;15.90;50.40;;;;;;5069362;28;20513;-72
2023/10/28 10:53:04;;;;;;;7.90;3.50;;;16.10;48.10;;;;;;5070061;28;20411;-68
2023/10/28 10:55:31;;;;;;;6.32;3.35;;;16.30;46.50;;;;;;5065918;28;20436;-72
2023/10/28 10:57:58;;;;;;;3.83;2.20;;;16.40;45.30;;;;;;5054161;28;20401;-71
2023/10/28 11:00:24;;;;;;;13.32;5.85;;;16.50;43.60;;;;;;5052161;28;20472;-70
2023/10/28 11:02:50;;;;;;;4.35;2.40;;;16.80;43.90;;;;;;5054720;28;20852;-71
2023/10/28 11:05:17;;;;;;;3.30;1.85;;;16.90;40.70;;;;;;5053078;28;20402;-71
2023/10/28 11:07:43;;;;;;;8.35;4.50;;;16.80;40.90;;;;;;5051653;28;20404;-71
2023/10/28 11:10:10;;;;;;;12.38;5.57;;;16.60;41.60;;;;;;5060083;28;20413;-71
2023/10/28 11:12:37;;;;;;;4.50;2.47;;;16.50;43.20;;;;;;5072794;28;20391;-73
2023/10/28 11:15:03;;;;;;;7.90;2.00;;;16.50;44.10;;;;;;5068814;28;20492;-73
2023/10/28 11:17:29;;;;;;;4.95;2.10;;;16.30;44.60;;;;;;5069809;28;20456;-69
2023/10/28 11:19:56;;;;;;;3.30;1.67;;;16.40;44.50;;;;;;5055218;28;20403;-70
2023/10/28 11:22:23;;;;;;;5.15;2.10;;;16.40;43.20;;;;;;5053097;28;20417;-70
2023/10/28 11:24:56;;;;;;;7.65;2.13;;;16.60;38.00;;;;;;5064211;28;20396;-69
2023/10/28 11:27:26;;;;;;;19.25;3.50;;;16.50;33.60;;;;;;5052684;28;20386;-70
2023/10/28 11:29:57;;;;;;;13.35;2.80;;;16.40;31.50;;;;;;5063071;28;20392;-70
2023/10/28 11:32:23;;;;;;;9.82;2.80;;;16.40;31.40;;;;;;5072062;28;20466;-69
2023/10/28 11:34:49;;;;;;;12.57;3.00;;;16.40;31.20;;;;;;5072576;28;20383;-70
2023/10/28 11:37:15;;;;;;;11.88;2.78;;;16.40;31.60;;;;;;5072090;28;20399;-71
2023/10/28 11:39:44;;;;;;;11.50;3.17;;;16.40;31.80;;;;;;5071993;28;21191;-69
2023/10/28 11:42:12;;;;;;;10.63;2.88;;;16.40;31.20;;;;;;5059071;28;20409;-70
2023/10/28 11:44:38;;;;;;;14.00;2.60;;;16.30;31.70;;;;;;5056529;28;20410;-70
2023/10/28 11:47:05;;;;;;;17.70;3.37;;;16.20;30.80;;;;;;5065691;28;20390;-71
2023/10/28 11:49:30;;;;;;;11.45;2.90;;;16.30;31.80;;;;;;5074233;28;20387;-72
2023/10/28 11:51:56;;;;;;;14.02;2.70;;;16.20;31.50;;;;;;5054848;28;20406;-71
2023/10/28 11:54:22;;;;;;;13.23;2.92;;;16.10;31.40;;;;;;5055993;28;20405;-71
2023/10/28 11:56:47;;;;;;;11.90;3.07;;;16.20;31.70;;;;;;5055163;28;20611;-71
2023/10/28 11:59:13;;;;;;;14.63;2.97;;;16.20;31.90;;;;;;5055568;28;20461;-70
2023/10/28 12:01:39;;;;;;;12.15;2.72;;;16.40;32.00;;;;;;5055281;28;20455;-71
2023/10/28 12:04:07;;;;;;;17.37;2.90;;;16.70;30.50;;;;;;5053646;28;20413;-69
2023/10/28 12:06:33;;;;;;;12.20;3.03;;;16.70;31.60;;;;;;5057198;28;20381;-71
2023/10/28 12:09:00;;;;;;;17.95;3.22;;;16.90;31.30;;;;;;5056527;28;20394;-71
2023/10/28 12:11:27;;;;;;;19.52;3.75;;;17.20;30.70;;;;;;5056460;28;20378;-70
2023/10/28 12:13:55;;;;;;;10.65;3.00;;;17.60;30.20;;;;;;5060498;28;20408;-71
2023/10/28 12:16:21;;;;;;;9.10;2.85;;;17.80;28.30;;;;;;5062459;28;20381;-71
2023/10/28 12:18:47;;;;;;;14.17;3.70;;;18.00;27.30;;;;;;5058633;28;20473;-72
2023/10/28 12:21:15;;;;;;;17.55;3.10;;;18.00;27.60;;;;;;5054739;28;20409;-71
2023/10/28 12:23:42;;;;;;;11.98;2.92;;;18.10;27.50;;;;;;5053632;28;20476;-72
2023/10/28 12:26:08;;;;;;;12.10;2.53;;;18.10;26.00;;;;;;5053754;28;20419;-72
2023/10/28 12:28:34;;;;;;;14.05;3.30;;;18.00;26.20;;;;;;5054217;28;20496;-71
2023/10/28 12:31:01;;;;;;;12.18;3.20;;;17.90;27.50;;;;;;5065322;28;20873;-69
2023/10/28 12:33:26;;;;;;;14.00;3.17;;;17.80;26.60;;;;;;5062569;28;20560;-70
2023/10/28 12:35:52;;;;;;;8.20;2.20;;;17.90;26.70;;;;;;5065919;28;20488;-69
2023/10/28 12:38:18;;;;;;;17.17;3.70;;;17.80;26.50;;;;;;5066560;28;20867;-70
2023/10/28 12:40:43;;;;;;;10.55;2.85;;;17.60;27.00;;;;;;5071924;28;20388;-70
2023/10/28 12:43:09;;;;;;;11.57;2.83;;;17.50;28.20;;;;;;5069558;28;20388;-70